Time;durP1;ratioP1;P1;durP2;ratioP2;P2;SDS_P1;SDS_P2;PMS_P1;PMS_P2;Temp;Humidity;BMP_temperature;BMP_pressure;BME280_temperature;BME280_humidity;BME280_pressure;Samples;Min_cycle;Max_cycle;Signal;HPM_P1;HPM_P2
2021/03/26 00:01:39;;;;;;;24.37;18.13;;;8.50;99.90;;;;;;5069397;28;20419;-68
2021/03/26 00:04:06;;;;;;;19.60;17.33;;;8.40;99.90;;;;;;5067819;28;20470;-69
2021/03/26 00:06:36;;;;;;;26.43;18.60;;;8.30;99.90;;;;;;5068301;28;20462;-69
2021/03/26 00:09:04;;;;;;;23.23;18.33;;;8.40;99.90;;;;;;5071607;28;20431;-70
2021/03/26 00:11:30;;;;;;;23.07;18.93;;;8.30;99.90;;;;;;5071120;28;20441;-68
2021/03/26 00:13:56;;;;;;;25.87;19.27;;;8.20;99.90;;;;;;5070421;28;20446;-68
2021/03/26 00:16:22;;;;;;;22.13;18.40;;;8.10;99.90;;;;;;5070710;28;20521;-67
2021/03/26 00:18:49;;;;;;;23.67;17.90;;;8.10;99.90;;;;;;5068699;28;20181;-70
2021/03/26 00:21:15;;;;;;;21.77;17.50;;;8.10;99.90;;;;;;5067352;28;20751;-69
2021/03/26 00:23:42;;;;;;;21.40;17.50;;;8.10;99.90;;;;;;5069022;28;20438;-68
2021/03/26 00:26:08;;;;;;;22.70;18.67;;;8.00;99.90;;;;;;5070755;28;20909;-69
2021/03/26 00:28:33;;;;;;;24.63;18.60;;;8.00;99.90;;;;;;5070192;28;20437;-70
2021/03/26 00:30:59;;;;;;;26.53;19.07;;;7.90;99.90;;;;;;5071402;28;20434;-68
2021/03/26 00:33:25;;;;;;;26.17;18.80;;;7.90;99.90;;;;;;5070788;28;20192;-69
2021/03/26 00:35:53;;;;;;;23.70;18.27;;;7.80;99.90;;;;;;5070890;28;20489;-69
2021/03/26 00:38:18;;;;;;;25.47;18.50;;;7.80;99.90;;;;;;5070094;28;20426;-70
2021/03/26 00:40:44;;;;;;;25.17;19.00;;;7.70;99.90;;;;;;5069652;28;20770;-70
2021/03/26 00:43:09;;;;;;;27.13;19.20;;;7.60;99.90;;;;;;5071283;28;20190;-70
2021/03/26 00:45:36;;;;;;;26.60;19.10;;;7.60;99.90;;;;;;5072237;28;20211;-69
2021/03/26 00:48:04;;;;;;;22.93;18.57;;;7.50;99.90;;;;;;5079062;28;20191;-70
2021/03/26 00:50:36;;;;;;;25.80;19.50;;;7.50;99.90;;;;;;5070934;28;20481;-69
2021/03/26 00:53:05;;;;;;;24.23;17.90;;;7.40;99.90;;;;;;5070448;28;20473;-68
2021/03/26 00:55:31;;;;;;;26.27;19.70;;;7.40;99.90;;;;;;5069817;28;20451;-69
2021/03/26 00:57:56;;;;;;;29.40;19.83;;;7.40;99.90;;;;;;5070837;28;20529;-69
2021/03/26 01:00:25;;;;;;;26.90;19.37;;;7.30;99.90;;;;;;5070485;28;20177;-69
2021/03/26 01:02:51;;;;;;;26.97;19.50;;;7.30;99.90;;;;;;5069071;28;20236;-69
2021/03/26 01:05:21;;;;;;;26.80;19.13;;;7.30;99.90;;;;;;5070441;28;20441;-69
2021/03/26 01:07:47;;;;;;;24.23;19.53;;;7.20;99.90;;;;;;5066305;28;20438;-69
2021/03/26 01:10:15;;;;;;;22.45;18.40;;;7.20;99.90;;;;;;5085526;28;20446;-69
2021/03/26 01:12:41;;;;;;;28.77;20.23;;;7.20;99.90;;;;;;5068504;28;20191;-69
2021/03/26 01:15:09;;;;;;;25.70;19.60;;;7.20;99.90;;;;;;5070586;28;20490;-69
2021/03/26 01:17:34;;;;;;;25.48;20.15;;;7.10;99.90;;;;;;5066733;28;20258;-70
2021/03/26 01:20:00;;;;;;;24.30;20.10;;;7.00;99.90;;;;;;5070423;28;20617;-70
2021/03/26 01:22:25;;;;;;;29.27;19.97;;;6.90;99.90;;;;;;5069955;28;20808;-70
2021/03/26 01:24:51;;;;;;;24.57;19.50;;;6.90;99.90;;;;;;5070047;28;20542;-70
2021/03/26 01:27:16;;;;;;;27.13;20.10;;;6.80;99.90;;;;;;5070061;28;20238;-70
2021/03/26 01:29:42;;;;;;;25.60;19.67;;;6.80;99.90;;;;;;5064121;28;20534;-70
2021/03/26 01:32:09;;;;;;;25.13;20.00;;;6.70;99.90;;;;;;5066625;28;20268;-70
2021/03/26 01:34:34;;;;;;;29.55;20.25;;;6.70;99.90;;;;;;5069554;28;20208;-70
2021/03/26 01:37:00;;;;;;;26.13;20.00;;;6.60;99.90;;;;;;5068443;28;20214;-70
2021/03/26 01:39:26;;;;;;;26.03;19.07;;;6.60;99.90;;;;;;5068981;28;20177;-69
2021/03/26 01:41:51;;;;;;;24.87;19.20;;;6.60;99.90;;;;;;5070094;28;20185;-69
2021/03/26 01:44:21;;;;;;;25.00;19.03;;;6.50;99.90;;;;;;5070141;28;20182;-69
2021/03/26 01:46:48;;;;;;;26.52;18.83;;;6.50;99.90;;;;;;5069466;28;20182;-69
2021/03/26 01:49:14;;;;;;;25.77;20.10;;;6.50;99.90;;;;;;5072753;28;21003;-69
2021/03/26 01:51:43;;;;;;;25.60;19.10;;;6.40;99.90;;;;;;5069619;28;20272;-68
2021/03/26 01:54:14;;;;;;;25.38;18.50;;;6.40;99.90;;;;;;5067867;28;20447;-69
2021/03/26 01:56:39;;;;;;;28.50;20.10;;;6.30;99.90;;;;;;5069530;28;20624;-69
2021/03/26 01:59:05;;;;;;;28.20;20.00;;;6.30;99.90;;;;;;5069125;28;20276;-69
2021/03/26 02:01:40;;;;;;;26.63;19.20;;;6.30;99.90;;;;;;5069651;28;20214;-69
2021/03/26 02:04:07;;;;;;;27.73;20.08;;;6.30;99.90;;;;;;5064971;28;20293;-68
2021/03/26 02:06:39;;;;;;;26.98;19.58;;;6.30;99.90;;;;;;5069530;28;20186;-69
2021/03/26 02:09:18;;;;;;;32.33;20.05;;;6.20;99.90;;;;;;5068171;28;20183;-69
2021/03/26 02:11:56;;;;;;;25.73;20.25;;;6.20;99.90;;;;;;5068654;28;20201;-69
2021/03/26 02:14:31;;;;;;;26.90;19.85;;;6.20;99.90;;;;;;5067689;28;20201;-69
2021/03/26 02:16:57;;;;;;;26.55;20.10;;;6.20;99.90;;;;;;5063419;28;20198;-69
2021/03/26 02:19:33;;;;;;;27.37;20.17;;;6.10;99.90;;;;;;5068975;28;20668;-68
2021/03/26 02:22:00;;;;;;;26.30;20.58;;;6.10;99.90;;;;;;5069572;28;20864;-69
2021/03/26 02:24:27;;;;;;;28.58;19.65;;;6.10;99.90;;;;;;5066713;28;20185;-69
2021/03/26 02:27:01;;;;;;;28.88;20.77;;;6.10;99.90;;;;;;5068880;28;20700;-68
2021/03/26 02:29:31;;;;;;;25.13;19.00;;;6.00;99.90;;;;;;5068961;28;20265;-69
2021/03/26 02:32:07;;;;;;;32.55;21.33;;;5.90;99.90;;;;;;5067344;28;20185;-69
2021/03/26 02:34:33;;;;;;;32.40;20.77;;;5.90;99.90;;;;;;5068706;28;20252;-69
2021/03/26 02:37:03;;;;;;;30.47;20.13;;;5.90;99.90;;;;;;5068792;28;20209;-68
2021/03/26 02:39:42;;;;;;;27.00;20.90;;;5.80;99.90;;;;;;5068563;28;20781;-68
2021/03/26 02:42:24;;;;;;;30.27;22.13;;;5.70;99.90;;;;;;5069223;28;20883;-66
2021/03/26 02:45:16;;;;;;;27.77;20.45;;;5.70;99.90;;;;;;5068075;28;20185;-69
2021/03/26 02:47:52;;;;;;;31.23;20.60;;;5.60;99.90;;;;;;5068593;28;20174;-68
2021/03/26 02:50:42;;;;;;;30.17;21.63;;;5.60;99.90;;;;;;5068875;28;20194;-68
2021/03/26 02:53:10;;;;;;;26.80;20.70;;;5.60;99.90;;;;;;5068823;28;20275;-69
2021/03/26 02:55:48;;;;;;;33.03;21.60;;;5.50;99.90;;;;;;5068232;28;20184;-69
2021/03/26 02:58:21;;;;;;;29.35;20.52;;;5.40;99.90;;;;;;5068394;28;20210;-69
2021/03/26 03:00:58;;;;;;;31.33;20.42;;;5.40;99.90;;;;;;5068705;28;20198;-69
2021/03/26 03:03:26;;;;;;;33.58;21.85;;;5.40;99.90;;;;;;5067233;28;20734;-69
2021/03/26 03:06:02;;;;;;;31.95;21.83;;;5.30;99.90;;;;;;5068892;28;20543;-69
2021/03/26 03:08:33;;;;;;;29.52;21.80;;;5.30;99.90;;;;;;5068222;28;20191;-69
2021/03/26 03:11:03;;;;;;;34.38;22.63;;;5.30;99.90;;;;;;5072185;28;20193;-69
2021/03/26 03:13:47;;;;;;;35.58;23.65;;;5.30;99.90;;;;;;5072604;28;20184;-69
2021/03/26 03:16:26;;;;;;;34.90;23.58;;;5.20;99.90;;;;;;5069588;28;20216;-69
2021/03/26 03:19:27;;;;;;;29.85;20.85;;;5.20;99.90;;;;;;5071370;28;20169;-69
2021/03/26 03:22:07;;;;;;;34.40;21.85;;;5.10;99.90;;;;;;5033911;28;20201;-69
2021/03/26 03:24:38;;;;;;;31.38;21.50;;;5.10;99.90;;;;;;5070911;28;20204;-69
2021/03/26 03:27:22;;;;;;;35.60;22.70;;;5.10;99.90;;;;;;5072513;28;20292;-69
2021/03/26 03:30:04;;;;;;;33.42;23.02;;;5.10;99.90;;;;;;5059437;28;20611;-70
2021/03/26 03:32:48;;;;;;;29.40;21.25;;;5.00;99.90;;;;;;5071915;28;20703;-70
2021/03/26 03:35:30;;;;;;;33.13;22.15;;;4.90;99.90;;;;;;5071982;28;20697;-69
2021/03/26 03:38:17;;;;;;;32.55;22.65;;;4.90;99.90;;;;;;5072274;28;20169;-69
2021/03/26 03:40:48;;;;;;;34.85;22.67;;;4.90;99.90;;;;;;5059348;28;20616;-69
2021/03/26 03:43:36;;;;;;;33.40;23.60;;;4.90;99.90;;;;;;5072620;28;20662;-69
2021/03/26 03:46:10;;;;;;;35.72;22.85;;;4.90;99.90;;;;;;5066140;28;20625;-68
2021/03/26 03:48:50;;;;;;;31.90;21.85;;;4.80;99.90;;;;;;5071593;28;20547;-68
2021/03/26 03:51:20;;;;;;;37.90;22.17;;;4.70;99.90;;;;;;5071251;28;20198;-68
2021/03/26 03:53:59;;;;;;;33.53;22.17;;;4.70;99.90;;;;;;5080941;28;20559;-69
2021/03/26 03:57:03;;;;;;;30.73;21.25;;;4.70;99.90;;;;;;5071628;28;20213;-68
2021/03/26 03:59:56;;;;;;;30.75;21.70;;;4.70;99.90;;;;;;5057497;28;20222;-68
2021/03/26 04:02:38;;;;;;;31.30;21.42;;;4.70;99.90;;;;;;5068672;28;20502;-67
2021/03/26 04:05:33;;;;;;;32.63;20.13;;;4.70;99.90;;;;;;5065003;28;20213;-67
2021/03/26 04:08:28;;;;;;;32.00;21.70;;;4.70;99.90;;;;;;5068568;28;20647;-68
2021/03/26 04:11:24;;;;;;;29.70;21.00;;;4.60;99.90;;;;;;5053607;28;20289;-68
2021/03/26 04:13:58;;;;;;;31.48;20.65;;;4.50;99.90;;;;;;5040114;28;20338;-68
2021/03/26 04:16:25;;;;;;;33.00;22.30;;;4.50;99.90;;;;;;5071367;28;20204;-67
2021/03/26 04:18:58;;;;;;;30.77;22.13;;;4.50;99.90;;;;;;5069888;28;20185;-67
2021/03/26 04:21:30;;;;;;;34.00;21.55;;;4.50;99.90;;;;;;5071912;28;20363;-67
2021/03/26 04:24:02;;;;;;;31.08;21.00;;;4.50;99.90;;;;;;5071457;28;20508;-69
2021/03/26 04:26:38;;;;;;;28.98;20.05;;;4.50;99.90;;;;;;5069931;28;20190;-70
2021/03/26 04:29:25;;;;;;;31.85;21.05;;;4.50;99.90;;;;;;5071039;28;20192;-69
2021/03/26 04:31:57;;;;;;;31.88;21.77;;;4.50;99.90;;;;;;5071290;28;20734;-69
2021/03/26 04:34:23;;;;;;;32.80;21.65;;;4.50;99.90;;;;;;5070792;28;20192;-69
2021/03/26 04:37:18;;;;;;;35.50;22.70;;;4.50;99.90;;;;;;5076638;28;20314;-69
2021/03/26 04:40:10;;;;;;;32.33;20.70;;;4.50;99.90;;;;;;5062826;28;20428;-69
2021/03/26 04:42:48;;;;;;;32.55;21.25;;;4.50;99.90;;;;;;5069624;28;20177;-69
2021/03/26 04:45:24;;;;;;;32.05;21.23;;;4.50;99.90;;;;;;5070363;28;20343;-69
2021/03/26 04:48:14;;;;;;;33.72;22.30;;;4.40;99.90;;;;;;5064454;28;20539;-69
2021/03/26 04:51:05;;;;;;;35.40;24.50;;;4.40;99.90;;;;;;5072026;28;20181;-69
2021/03/26 04:53:41;;;;;;;30.23;21.83;;;4.30;99.90;;;;;;5070382;28;20182;-69
2021/03/26 04:56:12;;;;;;;32.63;22.08;;;4.40;99.90;;;;;;5070484;28;20193;-68
2021/03/26 04:58:41;;;;;;;32.70;23.00;;;4.30;99.90;;;;;;5084502;28;20178;-68
2021/03/26 05:01:14;;;;;;;35.72;23.73;;;4.40;99.90;;;;;;5070851;28;20174;-68
2021/03/26 05:03:43;;;;;;;35.10;24.40;;;4.30;99.90;;;;;;5070209;28;20232;-68
2021/03/26 05:06:19;;;;;;;37.45;23.50;;;4.30;99.90;;;;;;5071230;28;20251;-67
2021/03/26 05:08:53;;;;;;;34.08;22.38;;;4.30;99.90;;;;;;5068388;28;20621;-68
2021/03/26 05:11:20;;;;;;;33.88;22.48;;;4.30;99.90;;;;;;5069471;28;20208;-69
2021/03/26 05:13:51;;;;;;;34.63;22.98;;;4.30;99.90;;;;;;5068587;28;20189;-67
2021/03/26 05:16:27;;;;;;;35.28;22.85;;;4.30;99.90;;;;;;5064494;28;20213;-68
2021/03/26 05:19:15;;;;;;;32.28;22.83;;;4.30;99.90;;;;;;5060298;28;20276;-68
2021/03/26 05:21:48;;;;;;;36.40;24.10;;;4.30;99.90;;;;;;5061273;28;20170;-69
2021/03/26 05:24:21;;;;;;;33.30;22.45;;;4.30;99.90;;;;;;5061334;28;20185;-68
2021/03/26 05:26:47;;;;;;;35.15;23.40;;;4.30;99.90;;;;;;5060834;28;20177;-67
2021/03/26 05:29:13;;;;;;;34.47;24.65;;;4.40;99.90;;;;;;5060303;28;20197;-67
2021/03/26 05:32:03;;;;;;;31.57;22.40;;;4.40;99.90;;;;;;5060569;28;20195;-67
2021/03/26 05:34:35;;;;;;;33.47;23.05;;;4.40;99.90;;;;;;5060338;28;20522;-68
2021/03/26 05:37:24;;;;;;;33.80;23.70;;;4.40;99.90;;;;;;5060007;28;20197;-69
2021/03/26 05:40:08;;;;;;;39.63;23.67;;;4.40;99.90;;;;;;5069011;28;20259;-68
2021/03/26 05:42:45;;;;;;;33.42;23.20;;;4.50;99.90;;;;;;5062283;28;20216;-68
2021/03/26 05:45:27;;;;;;;33.72;22.73;;;4.50;99.90;;;;;;5056638;28;20197;-68
2021/03/26 05:48:11;;;;;;;36.35;23.77;;;4.50;99.90;;;;;;5069231;28;20185;-67
2021/03/26 05:50:49;;;;;;;37.78;23.05;;;4.60;99.90;;;;;;5069648;28;20216;-68
2021/03/26 05:53:30;;;;;;;38.35;24.33;;;4.60;99.90;;;;;;5068992;28;20270;-68
2021/03/26 05:56:24;;;;;;;36.25;24.25;;;4.60;99.90;;;;;;5069902;28;20197;-68
2021/03/26 05:59:12;;;;;;;41.80;24.13;;;4.60;99.90;;;;;;5046563;28;20645;-67
2021/03/26 06:02:16;;;;;;;40.45;25.17;;;4.70;99.90;;;;;;5062699;28;20184;-68
2021/03/26 06:04:59;;;;;;;34.05;23.20;;;5.00;99.90;;;;;;5027086;28;20613;-67
2021/03/26 06:07:53;;;;;;;37.70;24.42;;;5.00;99.90;;;;;;5026871;28;20171;-67
2021/03/26 06:10:53;;;;;;;32.03;22.35;;;5.00;99.90;;;;;;5052753;28;20591;-67
2021/03/26 06:13:44;;;;;;;34.97;23.38;;;5.10;99.90;;;;;;5076364;28;20268;-67
2021/03/26 06:16:39;;;;;;;37.95;24.13;;;5.20;99.90;;;;;;5053158;28;20252;-67
2021/03/26 06:19:36;;;;;;;29.77;22.00;;;5.30;99.90;;;;;;5069266;28;20519;-68
2021/03/26 06:22:34;;;;;;;32.78;22.35;;;5.40;99.90;;;;;;5068635;28;20260;-67
2021/03/26 06:25:02;;;;;;;31.98;21.88;;;5.50;99.90;;;;;;5059703;28;20177;-68
2021/03/26 06:27:37;;;;;;;31.95;21.88;;;5.60;99.90;;;;;;5069151;28;20192;-67
2021/03/26 06:30:54;;;;;;;96.93;66.82;;;5.70;99.90;;;;;;5068182;28;20234;-68
2021/03/26 06:33:50;;;;;;;38.20;28.23;;;5.80;99.90;;;;;;5058383;28;20208;-67
2021/03/26 06:36:44;;;;;;;46.45;32.30;;;5.90;99.90;;;;;;5064115;28;20202;-68
2021/03/26 06:39:20;;;;;;;40.00;22.83;;;6.00;99.90;;;;;;5069332;28;20188;-68
2021/03/26 06:42:23;;;;;;;32.78;22.30;;;6.10;99.90;;;;;;5068367;28;20211;-68
2021/03/26 06:45:08;;;;;;;31.80;22.35;;;6.10;99.90;;;;;;5085794;28;20230;-68
2021/03/26 06:47:52;;;;;;;32.15;20.77;;;6.20;99.90;;;;;;5069206;28;20188;-68
2021/03/26 06:50:34;;;;;;;34.03;22.77;;;6.20;99.90;;;;;;5068087;28;20193;-67
2021/03/26 06:53:24;;;;;;;32.22;21.58;;;6.30;99.90;;;;;;5068978;28;20181;-68
2021/03/26 06:56:12;;;;;;;30.48;21.52;;;6.40;99.90;;;;;;5067217;28;20182;-68
2021/03/26 06:59:19;;;;;;;31.63;20.77;;;6.60;99.90;;;;;;5065896;28;20205;-68
2021/03/26 07:02:04;;;;;;;33.88;22.10;;;6.80;99.90;;;;;;5064262;28;20210;-69
2021/03/26 07:04:42;;;;;;;30.33;22.03;;;6.90;99.90;;;;;;5067086;28;20234;-68
2021/03/26 07:07:53;;;;;;;31.88;23.10;;;7.10;99.90;;;;;;5068530;28;20448;-69
2021/03/26 07:10:33;;;;;;;34.55;24.35;;;7.30;99.90;;;;;;5065054;28;20207;-69
2021/03/26 07:13:20;;;;;;;35.55;24.48;;;7.40;99.90;;;;;;5067698;28;20256;-68
2021/03/26 07:16:18;;;;;;;35.07;23.67;;;7.50;99.90;;;;;;5060904;28;20275;-67
2021/03/26 07:19:02;;;;;;;31.77;22.67;;;7.70;99.90;;;;;;5069036;28;20469;-67
2021/03/26 07:21:47;;;;;;;31.03;22.97;;;7.90;99.90;;;;;;5068258;28;20495;-69
2021/03/26 07:24:24;;;;;;;32.63;23.07;;;8.10;99.90;;;;;;5055752;28;20473;-67
2021/03/26 07:27:08;;;;;;;35.77;24.13;;;8.40;99.90;;;;;;5067822;28;20934;-68
2021/03/26 07:30:01;;;;;;;31.43;24.07;;;8.60;99.90;;;;;;5058004;28;20508;-68
2021/03/26 07:32:41;;;;;;;34.80;25.53;;;8.70;99.90;;;;;;5060708;28;20454;-67
2021/03/26 07:35:48;;;;;;;30.80;22.60;;;8.80;99.90;;;;;;5066610;28;20450;-68
2021/03/26 07:38:38;;;;;;;37.60;26.10;;;9.00;99.90;;;;;;5051243;28;20469;-68
2021/03/26 07:41:36;;;;;;;30.87;23.57;;;9.10;99.90;;;;;;5068435;28;20438;-68
2021/03/26 07:44:40;;;;;;;34.53;22.90;;;9.30;99.90;;;;;;5067909;28;20424;-68
2021/03/26 07:47:48;;;;;;;33.93;22.97;;;9.60;99.90;;;;;;5068559;28;20418;-68
2021/03/26 07:50:35;;;;;;;36.13;24.20;;;9.80;99.90;;;;;;5065541;28;20420;-68
2021/03/26 07:53:21;;;;;;;32.47;23.73;;;10.00;99.90;;;;;;5068380;28;20416;-68
2021/03/26 07:56:05;;;;;;;33.37;23.97;;;10.30;99.90;;;;;;5071165;28;20426;-68
2021/03/26 07:59:25;;;;;;;30.23;23.13;;;10.30;99.90;;;;;;5071325;28;20427;-67
2021/03/26 08:02:32;;;;;;;33.97;22.63;;;10.50;99.90;;;;;;5009297;28;20446;-68
2021/03/26 08:05:25;;;;;;;31.30;23.10;;;10.70;99.90;;;;;;4998766;28;20450;-68
2021/03/26 08:08:16;;;;;;;31.90;23.73;;;11.00;99.90;;;;;;5071807;28;20424;-68
2021/03/26 08:10:53;;;;;;;32.93;23.77;;;11.20;99.90;;;;;;5068326;28;20423;-69
2021/03/26 08:13:37;;;;;;;35.00;23.70;;;11.50;99.90;;;;;;5071740;28;20449;-66
2021/03/26 08:16:38;;;;;;;30.10;23.00;;;11.70;99.90;;;;;;5071023;28;20459;-65
2021/03/26 08:19:10;;;;;;;27.83;22.27;;;11.90;99.90;;;;;;5071381;28;20454;-65
2021/03/26 08:21:44;;;;;;;31.73;24.40;;;12.30;99.90;;;;;;5070383;28;20912;-64
2021/03/26 08:24:58;;;;;;;32.27;23.37;;;12.60;99.90;;;;;;5077496;28;20435;-64
2021/03/26 08:27:43;;;;;;;29.07;22.60;;;13.00;99.90;;;;;;5057522;28;20845;-65
2021/03/26 08:30:31;;;;;;;28.40;22.30;;;13.30;99.00;;;;;;5069295;28;20435;-64
2021/03/26 08:33:22;;;;;;;34.57;25.33;;;13.70;98.00;;;;;;5063492;28;21368;-66
2021/03/26 08:36:05;;;;;;;28.47;23.13;;;14.10;94.80;;;;;;5069830;28;20450;-66
2021/03/26 08:38:44;;;;;;;26.97;21.70;;;14.50;94.60;;;;;;5069745;28;20427;-66
2021/03/26 08:41:17;;;;;;;29.00;21.70;;;15.00;94.10;;;;;;5071167;28;20431;-66
2021/03/26 08:43:50;;;;;;;28.33;22.87;;;15.20;92.60;;;;;;5070879;28;20431;-65
2021/03/26 08:46:37;;;;;;;26.47;21.73;;;15.50;91.90;;;;;;5071067;28;20429;-64
2021/03/26 08:49:33;;;;;;;25.30;21.80;;;15.90;87.40;;;;;;5070907;28;20479;-65
2021/03/26 08:52:15;;;;;;;29.60;23.37;;;16.40;84.40;;;;;;5070587;28;20423;-65
2021/03/26 08:55:18;;;;;;;25.97;23.03;;;16.70;80.90;;;;;;5070304;28;20568;-65
2021/03/26 08:58:16;;;;;;;24.37;21.10;;;17.10;77.50;;;;;;5069803;28;20481;-65
2021/03/26 09:01:10;;;;;;;25.77;22.63;;;17.80;78.90;;;;;;5056678;28;21264;-65
2021/03/26 09:03:53;;;;;;;25.03;22.33;;;18.60;68.40;;;;;;5070142;28;20616;-63
2021/03/26 09:07:06;;;;;;;25.90;23.20;;;19.20;62.70;;;;;;5069703;28;20426;-65
2021/03/26 09:09:54;;;;;;;24.47;21.87;;;19.70;58.30;;;;;;5057908;28;20439;-64
2021/03/26 09:12:30;;;;;;;27.20;22.40;;;20.60;55.50;;;;;;5066457;28;20424;-65
2021/03/26 09:15:15;;;;;;;27.23;22.50;;;20.30;54.70;;;;;;5063723;28;20435;-65
2021/03/26 09:17:55;;;;;;;26.27;22.63;;;21.10;53.30;;;;;;5069849;28;20825;-65
2021/03/26 09:20:43;;;;;;;23.60;21.10;;;22.00;49.60;;;;;;5070232;28;20426;-65
2021/03/26 09:23:08;;;;;;;23.30;20.67;;;22.30;50.10;;;;;;5068056;28;20896;-65
2021/03/26 09:25:43;;;;;;;24.80;22.20;;;22.90;47.50;;;;;;5069405;28;20431;-66
2021/03/26 09:28:29;;;;;;;24.90;20.90;;;23.00;44.70;;;;;;5059850;28;20184;-65
2021/03/26 09:31:12;;;;;;;23.73;21.33;;;22.80;43.90;;;;;;5072029;28;20416;-65
2021/03/26 09:33:52;;;;;;;22.87;20.57;;;22.90;45.10;;;;;;5072949;28;20416;-65
2021/03/26 09:36:22;;;;;;;22.83;20.33;;;23.80;43.90;;;;;;5066449;28;20528;-65
2021/03/26 09:38:59;;;;;;;23.23;21.00;;;23.90;41.90;;;;;;5068182;28;20502;-66
2021/03/26 09:41:43;;;;;;;22.03;19.80;;;23.60;41.10;;;;;;5066131;28;20829;-64
2021/03/26 09:44:24;;;;;;;20.87;18.67;;;23.10;41.70;;;;;;5066414;28;20453;-65
2021/03/26 09:47:03;;;;;;;20.60;18.43;;;23.80;40.80;;;;;;5069716;28;20755;-65
2021/03/26 09:49:44;;;;;;;23.00;17.90;;;24.10;41.10;;;;;;5066578;28;20423;-65
2021/03/26 09:52:17;;;;;;;21.10;18.90;;;24.20;40.50;;;;;;5067670;28;20411;-65
2021/03/26 09:54:51;;;;;;;20.43;18.43;;;24.90;37.20;;;;;;5063179;28;20421;-66
2021/03/26 09:57:41;;;;;;;20.20;18.10;;;24.90;39.00;;;;;;5074801;28;20463;-65
2021/03/26 10:00:27;;;;;;;19.83;17.70;;;25.50;37.50;;;;;;5069515;28;20442;-66
2021/03/26 10:02:53;;;;;;;20.23;18.20;;;25.70;36.80;;;;;;5063301;28;20521;-65
2021/03/26 10:05:51;;;;;;;19.60;17.73;;;25.90;33.90;;;;;;5058152;28;20428;-65
2021/03/26 10:11:30;;;;;;;19.30;17.40;;;25.80;37.20;;;;;;5063024;28;20454;-65
2021/03/26 10:14:22;;;;;;;20.20;18.10;;;25.40;35.00;;;;;;5061055;28;20427;-66
2021/03/26 10:17:12;;;;;;;20.53;18.53;;;25.40;35.20;;;;;;5060731;28;20470;-65
2021/03/26 10:19:40;;;;;;;19.63;17.70;;;25.80;34.10;;;;;;5056745;28;20897;-66
2021/03/26 10:22:48;;;;;;;18.73;17.10;;;25.40;35.10;;;;;;5072705;28;20439;-65
2021/03/26 10:25:24;;;;;;;19.57;17.70;;;25.70;35.00;;;;;;5079672;28;20508;-66
2021/03/26 10:28:05;;;;;;;18.90;17.00;;;26.30;34.80;;;;;;5074585;28;20430;-65
2021/03/26 10:30:42;;;;;;;18.63;16.73;;;26.60;32.70;;;;;;5069455;28;20411;-65
2021/03/26 10:33:14;;;;;;;18.83;17.03;;;27.60;31.50;;;;;;5070241;28;20430;-66
2021/03/26 10:35:53;;;;;;;19.00;17.30;;;27.80;30.00;;;;;;5078590;28;20478;-66
2021/03/26 10:38:44;;;;;;;17.80;16.20;;;26.70;31.50;;;;;;5075457;28;20433;-65
2021/03/26 10:41:20;;;;;;;18.97;16.97;;;26.60;32.30;;;;;;5067836;28;20507;-66
2021/03/26 10:44:17;;;;;;;19.30;17.60;;;26.30;32.30;;;;;;5073532;28;20416;-66
2021/03/26 10:47:03;;;;;;;18.63;16.80;;;25.30;32.50;;;;;;5068389;28;21102;-66
2021/03/26 10:49:41;;;;;;;18.87;17.13;;;24.70;33.70;;;;;;5073266;28;20406;-65
2021/03/26 10:52:19;;;;;;;18.40;16.70;;;23.60;34.80;;;;;;5073434;28;20577;-65
2021/03/26 10:54:54;;;;;;;14.10;12.73;;;23.00;37.40;;;;;;5059345;28;20427;-65
2021/03/26 10:57:28;;;;;;;12.27;11.07;;;22.60;37.70;;;;;;5078027;28;20503;-66
2021/03/26 10:59:53;;;;;;;11.80;10.50;;;22.10;37.00;;;;;;5062271;28;20834;-66
2021/03/26 11:02:56;;;;;;;11.77;10.67;;;21.70;37.50;;;;;;5075330;28;20442;-66
2021/03/26 11:05:41;;;;;;;11.67;10.57;;;21.40;38.10;;;;;;5038297;28;20240;-66
2021/03/26 11:08:21;;;;;;;10.57;9.57;;;21.30;39.40;;;;;;5077850;28;20785;-66
2021/03/26 11:10:59;;;;;;;11.10;10.10;;;21.10;40.00;;;;;;5072351;28;20410;-67
2021/03/26 11:13:44;;;;;;;11.67;10.57;;;21.00;40.10;;;;;;5068079;28;20473;-67
2021/03/26 11:16:20;;;;;;;11.70;10.53;;;20.70;39.40;;;;;;5071354;28;21392;-67
2021/03/26 11:18:57;;;;;;;11.47;10.30;;;20.60;40.20;;;;;;5071245;28;20430;-67
2021/03/26 11:21:25;;;;;;;20.57;17.73;;;21.10;39.10;;;;;;5068725;28;20423;-66
2021/03/26 11:23:58;;;;;;;10.37;9.40;;;21.20;39.10;;;;;;5067478;28;20427;-66
2021/03/26 11:26:30;;;;;;;10.97;9.80;;;21.30;39.50;;;;;;5068582;28;20420;-66
2021/03/26 11:28:55;;;;;;;10.50;9.40;;;21.20;39.40;;;;;;5067818;28;20439;-65
2021/03/26 11:31:30;;;;;;;11.03;10.00;;;21.30;39.00;;;;;;5066405;28;20423;-66
2021/03/26 11:34:14;;;;;;;10.13;9.23;;;21.10;37.90;;;;;;5071867;28;20892;-65
2021/03/26 11:36:49;;;;;;;10.27;9.37;;;20.70;39.30;;;;;;5071520;28;20524;-66
2021/03/26 11:39:29;;;;;;;10.93;9.80;;;20.70;39.30;;;;;;5065995;28;20442;-69
2021/03/26 11:42:07;;;;;;;10.47;9.40;;;20.80;39.80;;;;;;5069921;28;20434;-69
2021/03/26 11:44:39;;;;;;;9.50;8.70;;;20.60;39.70;;;;;;5069425;28;22332;-67
2021/03/26 11:47:27;;;;;;;11.63;10.53;;;20.20;39.80;;;;;;5071287;28;20529;-68
2021/03/26 11:50:06;;;;;;;11.07;10.00;;;20.00;38.90;;;;;;5070680;28;20919;-68
2021/03/26 11:52:42;;;;;;;10.87;9.90;;;19.70;39.80;;;;;;5069257;28;20457;-68
2021/03/26 11:55:19;;;;;;;9.90;9.00;;;19.50;40.90;;;;;;5068250;28;20433;-70
2021/03/26 11:58:09;;;;;;;10.40;9.40;;;19.40;40.70;;;;;;5071088;28;20483;-69
2021/03/26 12:00:38;;;;;;;9.30;8.43;;;19.40;40.10;;;;;;5063314;28;20410;-68
2021/03/26 12:03:15;;;;;;;8.13;7.20;;;19.40;39.80;;;;;;5068970;28;20494;-69
2021/03/26 12:06:20;;;;;;;9.13;8.33;;;19.50;40.50;;;;;;5068227;28;20404;-68
2021/03/26 12:08:54;;;;;;;9.60;8.70;;;19.80;40.90;;;;;;5069098;28;20518;-69
2021/03/26 12:11:25;;;;;;;8.23;6.90;;;20.60;39.70;;;;;;5068432;28;20475;-69
2021/03/26 12:13:56;;;;;;;6.53;5.70;;;21.00;35.20;;;;;;5066252;28;20447;-69
2021/03/26 12:16:25;;;;;;;6.53;6.03;;;19.80;33.70;;;;;;5066730;28;20847;-69
2021/03/26 12:18:55;;;;;;;8.00;7.30;;;19.50;35.40;;;;;;5066915;28;20419;-68
2021/03/26 12:21:31;;;;;;;9.10;6.63;;;19.70;35.60;;;;;;5067731;28;20423;-67
2021/03/26 12:24:23;;;;;;;7.47;6.87;;;19.60;35.70;;;;;;5070667;28;20430;-69
2021/03/26 12:26:55;;;;;;;8.20;6.83;;;20.40;35.40;;;;;;5052246;28;20849;-69
2021/03/26 12:29:35;;;;;;;8.17;7.10;;;20.70;35.10;;;;;;5070639;28;20427;-69
2021/03/26 12:32:13;;;;;;;7.70;7.10;;;21.30;34.20;;;;;;5069929;28;20435;-68
2021/03/26 12:34:50;;;;;;;6.10;5.60;;;21.40;33.40;;;;;;5069395;28;20928;-70
2021/03/26 12:37:24;;;;;;;8.40;7.60;;;21.50;33.20;;;;;;5069970;28;21016;-70
2021/03/26 12:40:05;;;;;;;8.90;8.07;;;21.50;33.60;;;;;;5069441;28;20472;-69
2021/03/26 12:42:42;;;;;;;10.10;9.20;;;21.60;32.80;;;;;;5069960;28;20419;-67
2021/03/26 12:45:21;;;;;;;7.70;7.10;;;21.80;33.00;;;;;;5069899;28;20917;-68
2021/03/26 12:47:54;;;;;;;8.53;7.73;;;22.10;32.90;;;;;;5070027;28;20438;-70
2021/03/26 12:50:36;;;;;;;10.10;8.40;;;21.60;32.20;;;;;;5069502;28;20454;-71
2021/03/26 12:53:09;;;;;;;9.87;9.07;;;21.30;32.90;;;;;;5068350;28;20447;-69
2021/03/26 12:56:19;;;;;;;11.30;10.30;;;20.80;33.60;;;;;;5069440;28;20898;-69
2021/03/26 12:59:13;;;;;;;12.20;10.90;;;20.80;33.80;;;;;;5068574;28;20442;-70
2021/03/26 13:02:01;;;;;;;11.03;10.03;;;20.70;34.30;;;;;;5069976;28;21081;-70
2021/03/26 13:04:38;;;;;;;12.50;11.07;;;21.10;33.90;;;;;;5056389;28;20466;-69
2021/03/26 13:07:19;;;;;;;12.50;11.10;;;21.10;33.80;;;;;;5063449;28;20870;-70
2021/03/26 13:10:14;;;;;;;11.40;10.40;;;21.30;33.50;;;;;;5068448;28;20442;-69
2021/03/26 13:12:44;;;;;;;12.33;11.10;;;21.80;33.30;;;;;;5066492;28;20595;-69
2021/03/26 13:15:16;;;;;;;13.67;11.50;;;21.80;33.90;;;;;;5067519;28;20427;-68
2021/03/26 13:17:42;;;;;;;13.40;12.10;;;22.10;32.90;;;;;;5067906;28;20542;-70
2021/03/26 13:20:13;;;;;;;13.30;11.90;;;22.10;33.10;;;;;;5065018;28;20496;-69
2021/03/26 13:22:39;;;;;;;13.93;12.57;;;22.00;33.10;;;;;;5066950;28;20415;-70
2021/03/26 13:25:34;;;;;;;13.80;12.40;;;21.70;34.00;;;;;;5068327;28;20416;-70
2021/03/26 13:28:08;;;;;;;13.17;11.73;;;21.40;34.00;;;;;;5040988;28;20656;-69
2021/03/26 13:30:37;;;;;;;13.60;12.20;;;21.90;33.80;;;;;;5067543;28;20427;-70
2021/03/26 13:33:14;;;;;;;15.03;13.53;;;22.40;33.40;;;;;;5069300;28;21293;-70
2021/03/26 13:35:54;;;;;;;15.50;14.00;;;22.20;33.10;;;;;;5058240;28;20427;-69
2021/03/26 13:38:36;;;;;;;15.77;14.07;;;21.40;34.00;;;;;;5067147;28;20435;-68